Time;durP1;ratioP1;P1;durP2;ratioP2;P2;SDS_P1;SDS_P2;PMS_P1;PMS_P2;Temp;Humidity;BMP_temperature;BMP_pressure;BME280_temperature;BME280_humidity;BME280_pressure;Samples;Min_cycle;Max_cycle;Signal;HPM_P1;HPM_P2
2023/01/28 00:00:29;;;;;;;12.32;7.50;;;;;;;2.24;88.17;102818.47;5031374;28;20056;-72
2023/01/28 00:02:54;;;;;;;13.23;7.43;;;;;;;2.25;88.13;102812.19;5043650;28;20040;-74
2023/01/28 00:05:21;;;;;;;16.55;7.68;;;;;;;2.24;88.43;102814.00;5049784;28;20048;-73
2023/01/28 00:07:48;;;;;;;14.57;7.53;;;;;;;2.22;88.50;102809.50;5041213;28;20042;-73
2023/01/28 00:10:14;;;;;;;14.50;7.80;;;;;;;2.23;87.93;102828.28;5030678;28;20037;-73
2023/01/28 00:12:39;;;;;;;13.80;7.13;;;;;;;2.17;87.27;102820.28;5029991;28;20499;-72
2023/01/28 00:15:05;;;;;;;15.20;7.97;;;;;;;2.21;87.35;102829.22;5030503;28;20037;-74
2023/01/28 00:17:30;;;;;;;14.18;7.57;;;;;;;2.19;87.30;102826.56;5030377;28;20036;-74
2023/01/28 00:19:55;;;;;;;15.13;7.95;;;;;;;2.19;87.46;102831.94;5028474;28;20124;-73
2023/01/28 00:22:21;;;;;;;17.13;8.02;;;;;;;2.18;87.75;102832.81;5029328;28;20115;-74
2023/01/28 00:24:47;;;;;;;14.43;6.57;;;;;;;2.19;87.00;102839.06;5030544;28;20069;-72
2023/01/28 00:27:12;;;;;;;13.73;7.30;;;;;;;2.15;86.74;102834.63;5029346;28;20464;-72
2023/01/28 00:29:37;;;;;;;14.18;6.70;;;;;;;2.16;87.70;102833.72;5028789;28;20171;-73
2023/01/28 00:32:04;;;;;;;12.57;6.35;;;;;;;2.13;87.71;102833.72;5029831;28;20044;-72
2023/01/28 00:34:30;;;;;;;16.05;7.65;;;;;;;2.13;87.50;102829.25;5029164;28;20029;-72
2023/01/28 00:36:58;;;;;;;14.10;7.32;;;;;;;2.11;86.89;102831.06;5029478;28;20045;-74
2023/01/28 00:39:25;;;;;;;16.73;8.00;;;;;;;2.12;88.32;102846.28;5029632;28;20483;-73
2023/01/28 00:41:51;;;;;;;14.60;7.95;;;;;;;2.11;87.62;102843.59;5029439;28;20195;-73
2023/01/28 00:44:17;;;;;;;15.15;7.18;;;;;;;2.10;87.69;102847.16;5029985;28;20397;-73
2023/01/28 00:46:42;;;;;;;13.38;7.28;;;;;;;2.09;88.00;102845.38;5029941;28;20041;-72
2023/01/28 00:49:08;;;;;;;11.82;6.65;;;;;;;2.06;87.53;102840.06;5028855;28;20444;-71
2023/01/28 00:51:34;;;;;;;16.33;7.97;;;;;;;2.06;87.63;102840.06;5028847;28;20045;-72
2023/01/28 00:53:59;;;;;;;14.55;6.85;;;;;;;2.06;87.19;102845.41;5029179;28;20033;-72
2023/01/28 00:56:25;;;;;;;17.63;7.85;;;;;;;2.04;87.43;102840.94;5028110;28;20033;-73
2023/01/28 00:58:51;;;;;;;13.50;7.55;;;;;;;2.04;87.08;102843.59;5028151;28;20036;-73
2023/01/28 01:01:25;;;;;;;11.68;5.90;;;;;;;2.06;86.68;102849.00;5029515;28;20440;-72
2023/01/28 01:04:01;;;;;;;14.32;7.75;;;;;;;2.02;86.77;102845.44;5027473;28;20057;-73
2023/01/28 01:06:31;;;;;;;13.88;7.28;;;;;;;2.02;87.37;102853.47;5027737;28;20045;-72
2023/01/28 01:08:59;;;;;;;14.00;6.85;;;;;;;2.03;86.63;102849.00;5028046;28;20036;-73
2023/01/28 01:11:24;;;;;;;11.95;6.68;;;;;;;2.01;87.26;102850.81;5031396;28;20033;-73
2023/01/28 01:13:55;;;;;;;12.60;6.50;;;;;;;2.00;86.91;102852.56;5044154;28;20048;-72
2023/01/28 01:16:25;;;;;;;14.82;7.10;;;;;;;1.99;87.80;102856.16;5028158;28;20029;-73
2023/01/28 01:18:52;;;;;;;15.15;7.38;;;;;;;1.97;88.01;102851.72;5027729;28;20048;-73
2023/01/28 01:21:19;;;;;;;13.95;7.07;;;;;;;1.98;87.55;102857.06;5027698;28;20041;-73
2023/01/28 01:23:45;;;;;;;15.90;7.20;;;;;;;1.95;86.88;102853.50;5029144;28;20428;-73
2023/01/28 01:26:12;;;;;;;15.95;7.95;;;;;;;1.94;86.82;102851.72;5030440;28;20025;-72
2023/01/28 01:28:37;;;;;;;14.10;6.43;;;;;;;1.94;86.82;102844.56;5028603;28;20505;-72
2023/01/28 01:31:10;;;;;;;17.25;7.45;;;;;;;1.95;86.94;102843.66;5010984;28;20044;-73
2023/01/28 01:33:35;;;;;;;15.27;8.52;;;;;;;1.95;86.99;102838.28;5028755;28;20041;-73
2023/01/28 01:36:01;;;;;;;14.93;7.68;;;;;;;1.93;87.54;102831.16;5025656;28;20393;-72
2023/01/28 01:38:28;;;;;;;13.90;7.28;;;;;;;1.95;87.46;102840.97;5028537;28;20029;-73
2023/01/28 01:40:58;;;;;;;13.93;7.30;;;;;;;1.92;87.86;102835.63;5027088;28;20033;-73
2023/01/28 01:43:49;;;;;;;13.70;7.05;;;;;;;1.96;87.66;102841.88;5043245;28;20048;-73
2023/01/28 01:46:20;;;;;;;13.70;7.18;;;;;;;1.93;87.96;102849.94;5027560;28;20393;-72
2023/01/28 01:48:46;;;;;;;13.95;7.00;;;;;;;1.91;88.24;102849.97;5027536;28;20136;-72
2023/01/28 01:51:18;;;;;;;14.57;7.95;;;;;;;1.93;85.42;102856.19;5027739;28;20037;-72
2023/01/28 01:53:47;;;;;;;15.90;8.13;;;;;;;1.89;86.49;102851.75;5029066;28;20037;-72
2023/01/28 01:56:17;;;;;;;15.77;7.78;;;;;;;1.90;87.13;102860.69;5029228;28;20035;-73
2023/01/28 01:58:45;;;;;;;14.10;7.55;;;;;;;1.88;86.11;102858.00;5027069;28;20135;-72
2023/01/28 02:01:12;;;;;;;16.40;7.90;;;;;;;1.86;87.02;102857.09;5026881;28;20037;-73
2023/01/28 02:03:52;;;;;;;13.02;6.80;;;;;;;1.86;86.33;102857.09;5010624;28;20417;-73
2023/01/28 02:06:18;;;;;;;16.20;8.13;;;;;;;1.88;86.13;102859.81;5026514;28;20444;-73
2023/01/28 02:08:44;;;;;;;13.60;6.78;;;;;;;1.81;86.85;102850.88;5011046;28;20035;-72
2023/01/28 02:11:10;;;;;;;17.35;8.15;;;;;;;1.84;86.30;102852.66;5035386;28;20109;-73
2023/01/28 02:13:48;;;;;;;14.75;7.38;;;;;;;1.83;86.63;102850.88;5026485;28;20040;-73
2023/01/28 02:16:14;;;;;;;17.05;8.20;;;;;;;1.84;86.61;102864.28;5028874;28;20044;-73
2023/01/28 02:18:39;;;;;;;17.33;7.75;;;;;;;1.84;86.30;102868.78;5026677;28;20452;-72
2023/01/28 02:21:26;;;;;;;14.60;6.68;;;;;;;1.84;87.38;102866.09;5026881;28;20041;-72
2023/01/28 02:24:22;;;;;;;14.20;6.85;;;;;;;1.82;87.79;102857.13;5029550;28;20032;-72
2023/01/28 02:27:16;;;;;;;15.32;7.13;;;;;;;1.81;87.83;102850.88;5041927;28;20115;-73
2023/01/28 02:29:57;;;;;;;13.90;7.00;;;;;;;1.79;87.92;102856.25;5035953;28;20036;-73
2023/01/28 02:32:38;;;;;;;12.00;6.68;;;;;;;1.79;87.85;102855.38;5026360;28;20493;-72
2023/01/28 02:35:26;;;;;;;15.32;7.15;;;;;;;1.81;87.78;102855.34;5025858;28;20033;-72
2023/01/28 02:37:58;;;;;;;13.77;7.60;;;;;;;1.79;87.20;102858.03;5025434;28;20046;-72
2023/01/28 02:41:00;;;;;;;13.73;7.43;;;;;;;1.77;87.54;102854.47;5026246;28;20482;-72
2023/01/28 02:43:40;;;;;;;14.52;7.00;;;;;;;1.75;87.31;102853.59;5027400;28;20029;-73
2023/01/28 02:49:08;;;;;;;14.00;6.70;;;;;;;1.72;85.92;102856.28;5025963;28;20046;-72
2023/01/28 02:51:47;;;;;;;12.07;6.30;;;;;;;1.68;86.67;102858.09;5025513;28;20060;-72
2023/01/28 02:54:33;;;;;;;14.07;7.45;;;;;;;1.68;86.20;102852.72;5026690;28;20430;-73
2023/01/28 02:57:16;;;;;;;17.52;7.00;;;;;;;1.68;86.23;102862.53;5032730;28;20036;-73
2023/01/28 02:59:56;;;;;;;14.43;6.65;;;;;;;1.67;86.40;102863.44;5035596;28;20552;-72
2023/01/28 03:02:28;;;;;;;15.82;7.35;;;;;;;1.65;86.57;102863.47;5026022;28;20036;-72
2023/01/28 03:05:06;;;;;;;14.30;7.85;;;;;;;1.64;86.17;102866.16;5025653;28;20550;-72
2023/01/28 03:07:36;;;;;;;14.13;6.85;;;;;;;1.63;86.01;102865.28;5025402;28;20044;-72
2023/01/28 03:10:05;;;;;;;12.02;6.40;;;;;;;1.64;85.48;102866.16;5026883;28;20061;-73
2023/01/28 03:38:21;;;;;;;11.02;5.65;;;;;;;1.52;85.07;102862.59;5030181;28;20576;-73
2023/01/28 03:40:49;;;;;;;11.82;6.47;;;;;;;1.51;85.55;102867.97;5029647;28;20087;-72
2023/01/28 03:43:15;;;;;;;13.57;7.03;;;;;;;1.51;86.66;102868.84;5030227;28;20076;-73
2023/01/28 03:45:45;;;;;;;14.65;7.25;;;;;;;1.46;87.15;102859.94;5031238;28;20562;-74
2023/01/28 03:48:11;;;;;;;13.07;7.20;;;;;;;1.48;87.81;102867.97;5029282;28;20417;-74
2023/01/28 03:50:37;;;;;;;15.38;7.97;;;;;;;1.46;88.13;102859.94;5028277;28;20497;-73
2023/01/28 03:53:11;;;;;;;15.32;7.18;;;;;;;1.46;88.48;102861.72;5029202;28;20037;-73
2023/01/28 03:55:45;;;;;;;13.63;7.38;;;;;;;1.43;88.88;102869.75;5029366;28;20033;-72
2023/01/28 03:58:11;;;;;;;14.45;7.18;;;;;;;1.41;88.50;102876.94;5046253;28;20495;-72
2023/01/28 04:00:40;;;;;;;14.77;6.82;;;;;;;1.40;89.23;102877.81;5046727;28;20623;-72
2023/01/28 04:03:16;;;;;;;15.98;8.13;;;;;;;1.38;89.22;102875.13;5048739;28;20033;-73
2023/01/28 04:06:04;;;;;;;17.65;8.48;;;;;;;1.38;89.51;102888.53;5048162;28;20029;-73
2023/01/28 04:08:51;;;;;;;17.85;8.00;;;;;;;1.35;89.16;102888.53;5032558;28;20589;-73
2023/01/28 04:11:29;;;;;;;18.52;8.10;;;;;;;1.35;89.61;102895.69;5028551;28;20033;-73
2023/01/28 04:13:56;;;;;;;17.02;7.20;;;;;;;1.36;89.57;102898.41;5028987;28;20029;-72
2023/01/28 04:16:22;;;;;;;15.93;8.15;;;;;;;1.32;89.27;102895.72;5028669;28;20037;-73
2023/01/28 04:18:48;;;;;;;13.68;7.13;;;;;;;1.33;89.63;102893.03;5029897;28;20029;-74
2023/01/28 04:21:13;;;;;;;17.75;8.32;;;;;;;1.33;89.72;102897.50;5028443;28;20107;-72
2023/01/28 04:23:39;;;;;;;14.73;7.22;;;;;;;1.32;89.93;102898.41;5028676;28;20069;-74
2023/01/28 04:26:05;;;;;;;17.05;8.45;;;;;;;1.27;90.18;102893.03;5029739;28;20493;-73
2023/01/28 04:28:31;;;;;;;18.25;8.75;;;;;;;1.25;89.96;102886.78;5028445;28;20047;-73
2023/01/28 04:30:57;;;;;;;16.15;7.80;;;;;;;1.25;89.77;102890.34;5048053;28;20029;-73
2023/01/28 04:33:34;;;;;;;14.25;7.25;;;;;;;1.25;89.88;102898.38;5048550;28;20445;-72
2023/01/28 04:36:09;;;;;;;17.27;7.43;;;;;;;1.25;90.57;102894.81;5044807;28;20035;-72
2023/01/28 04:38:41;;;;;;;15.20;6.85;;;;;;;1.23;90.27;102881.41;5013128;28;20033;-72
2023/01/28 04:41:26;;;;;;;16.95;8.00;;;;;;;1.23;90.22;102884.09;5028835;28;20037;-72
2023/01/28 04:43:52;;;;;;;17.77;8.38;;;;;;;1.22;90.27;102885.00;5028095;28;20029;-72
2023/01/28 04:46:31;;;;;;;17.95;7.40;;;;;;;1.23;90.22;102885.91;5028399;28;20539;-72
2023/01/28 04:49:03;;;;;;;14.75;7.53;;;;;;;1.23;90.08;102888.56;5027349;28;20409;-73
2023/01/28 04:51:46;;;;;;;16.35;7.82;;;;;;;1.22;90.36;102887.69;5029504;28;20049;-72
2023/01/28 04:54:38;;;;;;;16.40;7.93;;;;;;;1.22;90.08;102890.38;5027918;28;20035;-74
2023/01/28 04:57:05;;;;;;;17.73;8.05;;;;;;;1.24;90.11;102898.41;5013548;28;20032;-73
2023/01/28 04:59:33;;;;;;;16.15;7.95;;;;;;;1.23;90.40;102893.94;5011810;28;20124;-72
2023/01/28 05:01:59;;;;;;;16.67;7.65;;;;;;;1.24;90.39;102893.03;5028120;28;20028;-72
2023/01/28 05:04:25;;;;;;;17.95;8.07;;;;;;;1.23;89.99;102904.66;5011115;28;20033;-71
2023/01/28 05:06:51;;;;;;;15.52;7.55;;;;;;;1.18;90.34;102896.63;5027519;28;20030;-73
2023/01/28 05:09:21;;;;;;;17.00;7.07;;;;;;;1.23;90.31;102901.97;5027617;28;20504;-72
2023/01/28 05:11:49;;;;;;;17.88;8.05;;;;;;;1.21;90.60;102902.00;5027590;28;20489;-73
2023/01/28 05:14:14;;;;;;;15.00;7.65;;;;;;;1.19;90.38;102898.41;5028024;28;20018;-72
2023/01/28 05:16:46;;;;;;;15.55;8.02;;;;;;;1.20;90.69;102905.53;5028184;28;20374;-73
2023/01/28 05:19:12;;;;;;;16.23;7.68;;;;;;;1.18;91.00;102907.34;5027058;28;20087;-73
2023/01/28 05:21:42;;;;;;;16.35;7.57;;;;;;;1.16;90.79;102905.53;5027178;28;20034;-73
2023/01/28 05:24:26;;;;;;;16.05;7.22;;;;;;;1.16;90.26;102906.44;5027249;28;20072;-72
2023/01/28 05:26:52;;;;;;;16.35;7.22;;;;;;;1.16;90.45;102900.19;5039202;28;20423;-72
2023/01/28 05:29:17;;;;;;;15.40;8.05;;;;;;;1.16;90.38;102897.50;5041275;28;20029;-74
2023/01/28 05:31:42;;;;;;;15.68;6.95;;;;;;;1.14;90.07;102894.81;5027984;28;20431;-72
2023/01/28 05:34:08;;;;;;;16.08;7.50;;;;;;;1.15;90.16;102898.41;5026810;28;20083;-72
2023/01/28 05:36:33;;;;;;;14.60;7.63;;;;;;;1.12;89.15;102895.72;5026811;28;20034;-72
2023/01/28 05:39:06;;;;;;;14.20;6.65;;;;;;;1.12;87.19;102893.03;5027191;28;20075;-73
2023/01/28 05:41:32;;;;;;;14.07;7.20;;;;;;;1.07;87.20;102895.72;5028604;28;20059;-73
2023/01/28 05:44:00;;;;;;;15.77;6.43;;;;;;;1.06;86.71;102893.03;5027019;28;20465;-72
2023/01/28 05:46:46;;;;;;;14.02;7.20;;;;;;;1.09;86.50;102898.41;5028676;28;20072;-73
2023/01/28 05:49:34;;;;;;;12.77;6.63;;;;;;;1.04;85.95;102887.69;5027152;28;20056;-72
2023/01/28 05:52:19;;;;;;;12.98;6.35;;;;;;;1.04;84.76;102887.69;5018382;28;20124;-74
2023/01/28 05:54:45;;;;;;;12.77;5.78;;;;;;;1.04;82.99;102898.41;5027574;28;20121;-72
2023/01/28 05:57:10;;;;;;;9.82;5.72;;;;;;;1.04;81.49;102897.53;5028269;28;20102;-72
2023/01/28 05:59:36;;;;;;;13.18;6.10;;;;;;;1.01;81.70;102903.75;5026644;28;20072;-72
2023/01/28 06:02:01;;;;;;;11.75;6.30;;;;;;;1.06;81.89;102901.97;5026752;28;20033;-73
2023/01/28 06:04:27;;;;;;;10.80;5.43;;;;;;;1.05;82.49;102902.88;5026432;28;20037;-71
2023/01/28 06:06:52;;;;;;;9.45;6.05;;;;;;;1.05;81.81;102908.22;5009932;28;20030;-73
2023/01/28 06:09:18;;;;;;;11.20;6.35;;;;;;;1.05;81.69;102910.03;5026631;28;20075;-74
2023/01/28 06:11:44;;;;;;;12.15;5.88;;;;;;;1.04;81.87;102905.56;5027189;28;20504;-72
2023/01/28 06:14:10;;;;;;;12.00;6.68;;;;;;;0.99;81.37;102902.88;5026496;28;20116;-72
2023/01/28 06:17:04;;;;;;;11.18;5.53;;;;;;;1.03;81.60;102915.38;5035020;28;20044;-72
2023/01/28 06:19:59;;;;;;;21.65;7.82;;;;;;;1.01;80.92;102912.69;5026772;28;20149;-73
2023/01/28 06:22:25;;;;;;;13.80;7.15;;;;;;;1.05;81.77;102913.59;5009662;28;20587;-72
2023/01/28 06:24:50;;;;;;;13.90;6.82;;;;;;;1.05;82.89;102910.03;5026071;28;20045;-72
2023/01/28 06:27:15;;;;;;;12.43;6.50;;;;;;;1.04;82.37;102905.56;5026667;28;20033;-73
2023/01/28 06:29:41;;;;;;;15.52;7.07;;;;;;;1.02;82.29;102910.91;5026065;28;20127;-72
2023/01/28 06:32:06;;;;;;;14.32;6.97;;;;;;;0.99;81.75;102905.56;5026223;28;20076;-73
2023/01/28 06:34:31;;;;;;;13.45;7.47;;;;;;;1.03;81.46;102912.72;5027290;28;20033;-73
2023/01/28 06:36:57;;;;;;;18.00;7.85;;;;;;;1.01;80.61;102912.69;5027231;28;20106;-72
2023/01/28 06:39:22;;;;;;;12.90;6.60;;;;;;;1.02;81.26;102914.47;5027552;28;20029;-71
2023/01/28 06:41:49;;;;;;;15.88;7.43;;;;;;;1.01;81.58;102910.00;5031846;28;20120;-73
2023/01/28 06:44:15;;;;;;;13.23;6.40;;;;;;;0.98;82.13;102915.38;5042211;28;20036;-73
2023/01/28 06:46:40;;;;;;;15.82;7.00;;;;;;;0.97;82.74;102915.38;5026255;28;20136;-73
2023/01/28 06:49:05;;;;;;;13.93;6.82;;;;;;;0.95;82.14;102922.53;5026711;28;20076;-72
2023/01/28 06:51:31;;;;;;;15.25;7.00;;;;;;;0.93;82.31;102919.84;5026955;28;20550;-72
2023/01/28 06:53:56;;;;;;;15.30;7.50;;;;;;;0.92;83.11;102918.03;5027398;28;20596;-72
2023/01/28 06:56:21;;;;;;;16.38;7.47;;;;;;;0.93;83.40;102913.56;5027945;28;20036;-74
2023/01/28 06:58:47;;;;;;;14.00;7.38;;;;;;;0.91;82.96;102913.59;5045941;28;20477;-72
2023/01/28 07:01:12;;;;;;;14.38;7.47;;;;;;;0.88;81.27;102915.34;5029750;28;20038;-74
2023/01/28 07:03:38;;;;;;;15.90;8.10;;;;;;;0.90;81.70;102924.31;5030268;28;20065;-73
2023/01/28 07:06:03;;;;;;;16.38;7.18;;;;;;;0.90;81.34;102935.03;5030664;28;20393;-71
2023/01/28 07:08:29;;;;;;;14.95;7.57;;;;;;;0.89;82.13;102936.81;5029942;28;20037;-72
2023/01/28 07:10:54;;;;;;;14.38;6.97;;;;;;;0.88;81.52;102936.78;5031028;28;20465;-72
2023/01/28 07:13:19;;;;;;;15.43;7.47;;;;;;;0.86;81.47;102923.41;5031737;28;20037;-72
2023/01/28 07:15:45;;;;;;;13.55;6.47;;;;;;;0.87;79.67;102926.97;5031558;28;20037;-72
2023/01/28 07:18:10;;;;;;;15.00;7.82;;;;;;;0.86;82.06;102942.16;5031415;28;20048;-73
2023/01/28 07:20:36;;;;;;;18.35;8.00;;;;;;;0.87;82.67;102943.03;5029178;28;20495;-73
2023/01/28 07:23:01;;;;;;;16.88;7.70;;;;;;;0.87;83.17;102951.09;5030943;28;20504;-73
2023/01/28 07:25:26;;;;;;;15.73;6.68;;;;;;;0.87;82.15;102951.09;5031167;28;20021;-73
2023/01/28 07:27:52;;;;;;;17.25;9.10;;;;;;;0.85;80.58;102956.44;5030807;28;20060;-72
2023/01/28 07:30:19;;;;;;;16.42;7.45;;;;;;;0.83;80.05;102960.91;5031107;28;20033;-74
2023/01/28 07:32:45;;;;;;;13.23;6.65;;;;;;;0.83;79.96;102963.56;5013778;28;20030;-72
2023/01/28 07:35:11;;;;;;;14.55;7.15;;;;;;;0.82;79.65;102964.47;5029360;28;20088;-73
2023/01/28 07:37:37;;;;;;;17.27;7.80;;;;;;;0.82;79.89;102975.19;5030398;28;20049;-73
2023/01/28 07:40:03;;;;;;;15.27;7.20;;;;;;;0.83;80.26;102968.94;5030887;28;20025;-73
2023/01/28 07:42:28;;;;;;;17.38;7.28;;;;;;;0.81;80.78;102965.38;5030551;28;20043;-73
2023/01/28 07:44:54;;;;;;;18.35;8.05;;;;;;;0.81;81.24;102969.84;5029372;28;20543;-73
2023/01/28 07:47:19;;;;;;;15.27;7.10;;;;;;;0.80;81.28;102976.09;5030753;28;20026;-72
2023/01/28 07:49:44;;;;;;;13.93;7.13;;;;;;;0.77;81.31;102967.16;5030428;28;20073;-72
2023/01/28 07:52:10;;;;;;;13.40;6.85;;;;;;;0.77;80.08;102971.59;5029058;28;20527;-72
2023/01/28 07:54:35;;;;;;;14.77;7.45;;;;;;;0.77;81.11;102977.84;5029445;28;20485;-72
2023/01/28 07:57:00;;;;;;;15.48;7.05;;;;;;;0.78;81.68;102984.09;5030035;28;20430;-74
2023/01/28 07:59:26;;;;;;;16.50;7.50;;;;;;;0.79;80.87;102979.63;5030429;28;20145;-72
2023/01/28 08:01:53;;;;;;;14.68;7.35;;;;;;;0.79;80.41;102976.97;5030296;28;20444;-71
2023/01/28 08:04:18;;;;;;;15.23;6.80;;;;;;;0.82;80.87;102974.31;5029964;28;20137;-73
2023/01/28 08:06:44;;;;;;;16.92;7.85;;;;;;;0.84;80.80;102976.09;5028904;28;20113;-73
2023/01/28 08:09:09;;;;;;;17.05;7.88;;;;;;;0.85;80.80;102974.31;5030388;28;20067;-74
2023/01/28 08:11:37;;;;;;;13.55;6.78;;;;;;;0.87;79.41;102978.78;5031131;28;20132;-72
2023/01/28 08:14:03;;;;;;;19.60;8.50;;;;;;;0.89;81.46;102974.31;5036877;28;20025;-72
2023/01/28 08:16:30;;;;;;;13.98;7.38;;;;;;;0.89;79.49;102981.47;5049004;28;20072;-72
2023/01/28 08:18:56;;;;;;;17.67;7.50;;;;;;;0.92;79.53;102998.44;5050066;28;20037;-73
2023/01/28 08:21:21;;;;;;;14.90;7.15;;;;;;;0.94;80.09;102998.44;5045132;28;20111;-72
2023/01/28 08:23:47;;;;;;;14.23;7.28;;;;;;;0.96;80.54;103005.59;5050544;28;20439;-73
2023/01/28 08:26:12;;;;;;;17.95;7.90;;;;;;;0.97;80.13;103006.47;5046528;28;21311;-72
2023/01/28 08:28:37;;;;;;;15.75;7.55;;;;;;;1.00;81.28;103011.84;5029716;28;20025;-73
2023/01/28 08:31:03;;;;;;;17.58;8.00;;;;;;;1.01;80.82;103003.81;5049389;28;20068;-73
2023/01/28 08:33:28;;;;;;;15.90;7.47;;;;;;;1.04;81.72;103007.41;5035009;28;20025;-73
2023/01/28 08:35:54;;;;;;;14.10;6.93;;;;;;;1.07;80.51;103013.63;5028946;28;20465;-72
2023/01/28 08:38:19;;;;;;;14.10;7.30;;;;;;;1.10;80.70;103007.41;5029833;28;20326;-72
2023/01/28 08:40:46;;;;;;;12.68;7.07;;;;;;;1.12;79.81;103016.31;5030214;28;20511;-72
2023/01/28 08:43:11;;;;;;;12.48;7.20;;;;;;;1.16;81.52;103020.81;5028312;28;20139;-71
2023/01/28 08:45:38;;;;;;;16.83;7.70;;;;;;;1.19;80.82;103019.03;5045345;28;20048;-74
2023/01/28 08:48:05;;;;;;;14.95;7.43;;;;;;;1.22;79.94;103023.53;5041775;28;21504;-72
2023/01/28 08:50:34;;;;;;;17.17;7.68;;;;;;;1.24;79.77;103024.41;5029326;28;20179;-74
2023/01/28 08:53:10;;;;;;;15.43;7.82;;;;;;;1.25;80.16;103019.03;5029596;28;20045;-73
2023/01/28 08:55:35;;;;;;;17.98;8.55;;;;;;;1.26;79.53;103018.16;5029250;28;20120;-73
2023/01/28 08:58:03;;;;;;;17.20;8.25;;;;;;;1.26;80.29;103028.88;5028044;28;20133;-75
2023/01/28 09:00:28;;;;;;;15.32;7.90;;;;;;;1.26;80.81;103026.22;5028333;28;20128;-72
2023/01/28 09:02:53;;;;;;;16.50;7.55;;;;;;;1.29;80.32;103030.66;5029099;28;20037;-71
2023/01/28 09:05:20;;;;;;;15.57;7.57;;;;;;;1.32;80.30;103032.47;5027519;28;20353;-73
2023/01/28 09:07:46;;;;;;;16.02;7.63;;;;;;;1.33;80.31;103031.56;5028630;28;20083;-73
2023/01/28 09:10:12;;;;;;;16.13;8.15;;;;;;;1.35;79.94;103032.44;5029248;28;20504;-72
2023/01/28 09:12:37;;;;;;;14.52;8.05;;;;;;;1.34;78.76;103038.72;5039593;28;20083;-72
2023/01/28 09:15:03;;;;;;;16.90;9.10;;;;;;;1.32;80.41;103038.72;5035941;28;20033;-72
2023/01/28 09:17:29;;;;;;;16.40;8.88;;;;;;;1.28;79.59;103042.28;5029029;28;20033;-73
2023/01/28 09:19:54;;;;;;;19.02;8.85;;;;;;;1.29;79.87;103054.78;5028862;28;20021;-72
2023/01/28 09:22:19;;;;;;;16.20;7.72;;;;;;;1.26;79.77;103050.34;5028073;28;20039;-74
2023/01/28 09:24:45;;;;;;;19.50;8.32;;;;;;;1.24;80.01;103045.84;5029461;28;20477;-73
2023/01/28 09:27:11;;;;;;;17.88;9.43;;;;;;;1.22;79.96;103042.28;5029896;28;20029;-72
2023/01/28 09:29:37;;;;;;;16.33;7.72;;;;;;;1.20;80.82;103039.56;5035528;28;20041;-73
2023/01/28 09:32:03;;;;;;;16.98;8.18;;;;;;;1.18;79.67;103057.47;5045349;28;20095;-72
2023/01/28 09:34:29;;;;;;;18.23;9.18;;;;;;;1.19;78.71;103053.88;5028174;28;20029;-73
2023/01/28 09:36:54;;;;;;;15.50;7.70;;;;;;;1.19;78.75;103064.59;5028089;28;20440;-73
2023/01/28 09:39:19;;;;;;;17.77;8.10;;;;;;;1.19;78.11;103069.06;5028549;28;20062;-73
2023/01/28 09:42:11;;;;;;;16.42;8.38;;;;;;;1.12;78.18;103067.25;5027445;28;20065;-73
2023/01/28 09:44:59;;;;;;;14.15;7.65;;;;;;;1.17;79.08;103066.41;5035540;28;20469;-73
2023/01/28 09:47:29;;;;;;;16.52;8.07;;;;;;;1.20;78.79;103066.38;5048277;28;20078;-73
2023/01/28 09:49:58;;;;;;;15.45;8.27;;;;;;;1.22;78.90;103061.94;5047925;28;20052;-72
2023/01/28 09:52:25;;;;;;;19.05;8.20;;;;;;;1.26;79.18;103066.41;5039274;28;20044;-71
2023/01/28 09:55:04;;;;;;;14.88;8.00;;;;;;;1.31;79.88;103077.16;5028532;28;20398;-73
2023/01/28 09:57:36;;;;;;;15.00;7.60;;;;;;;1.33;78.81;103082.50;5029318;28;20488;-72
2023/01/28 10:00:11;;;;;;;14.57;7.85;;;;;;;1.33;78.79;103069.09;5028102;28;20503;-72
2023/01/28 10:02:58;;;;;;;16.38;9.25;;;;;;;1.34;80.32;103078.94;5027128;28;20756;-72
2023/01/28 10:05:45;;;;;;;13.82;7.65;;;;;;;1.34;78.11;103084.28;5027637;28;20037;-72
2023/01/28 10:08:35;;;;;;;13.45;7.65;;;;;;;1.32;79.21;103089.66;5026887;28;20073;-71
2023/01/28 10:11:14;;;;;;;16.55;8.25;;;;;;;1.33;78.96;103090.56;5027727;28;20128;-73
2023/01/28 10:13:54;;;;;;;15.68;8.20;;;;;;;1.31;78.21;103085.19;5028073;28;20445;-73
2023/01/28 10:16:33;;;;;;;15.73;8.25;;;;;;;1.33;78.88;103090.56;5026758;28;20068;-72
2023/01/28 10:19:06;;;;;;;13.95;8.38;;;;;;;1.31;78.34;103092.34;5027242;28;20106;-73
2023/01/28 10:21:40;;;;;;;;;;;;;;;1.35;79.84;103099.47;5026437;28;20038;-73
2023/01/28 10:24:17;;;;;;;17.35;7.38;;;;;;;1.34;80.68;103098.59;5027610;28;20369;-71
2023/01/28 10:26:43;;;;;;;14.02;7.05;;;;;;;1.35;78.48;103097.69;5028103;28;20045;-72
2023/01/28 10:29:24;;;;;;;14.68;7.28;;;;;;;1.31;79.09;103093.25;5027517;28;20037;-72
2023/01/28 10:32:12;;;;;;;15.10;7.95;;;;;;;1.31;77.93;103098.59;5026513;28;20037;-72
2023/01/28 10:34:38;;;;;;;14.23;6.80;;;;;;;1.31;77.98;103087.00;5026554;28;20424;-72
2023/01/28 10:37:04;;;;;;;14.40;7.30;;;;;;;1.31;77.80;103082.53;5047005;28;20048;-72
2023/01/28 10:39:29;;;;;;;12.77;6.38;;;;;;;1.33;77.50;103088.75;5037339;28;20063;-72
2023/01/28 10:41:55;;;;;;;15.48;6.70;;;;;;;1.31;78.15;103092.34;5027295;28;20034;-73
2023/01/28 10:44:33;;;;;;;15.38;7.20;;;;;;;1.25;78.54;103083.38;5027508;28;20512;-72
2023/01/28 10:47:03;;;;;;;15.18;7.15;;;;;;;1.22;78.69;103078.03;5026260;28;20087;-73
2023/01/28 10:49:30;;;;;;;13.43;6.82;;;;;;;1.27;78.93;103081.63;5025455;28;20114;-72
2023/01/28 10:51:55;;;;;;;13.98;7.25;;;;;;;1.27;78.32;103070.88;5026797;28;20489;-71
2023/01/28 10:54:26;;;;;;;13.95;6.13;;;;;;;1.30;79.00;103079.81;5027712;28;20061;-73
2023/01/28 10:57:04;;;;;;;14.50;6.82;;;;;;;1.32;79.66;103080.72;5026955;28;20052;-72
2023/01/28 10:59:35;;;;;;;15.80;6.55;;;;;;;1.32;78.55;103073.56;5027377;28;20112;-72
2023/01/28 11:02:03;;;;;;;15.88;6.78;;;;;;;1.29;79.52;103084.28;5027253;28;20041;-74
2023/01/28 11:04:32;;;;;;;16.58;7.63;;;;;;;1.27;81.05;103095.00;5025231;28;20134;-73
2023/01/28 11:07:00;;;;;;;16.00;7.50;;;;;;;1.23;79.41;103077.13;5027098;28;20034;-71
2023/01/28 11:09:30;;;;;;;14.25;6.85;;;;;;;1.24;79.36;103080.69;5027190;28;20040;-72
2023/01/28 11:11:56;;;;;;;15.88;7.88;;;;;;;1.23;79.40;103071.78;5026655;28;20029;-73
2023/01/28 11:14:24;;;;;;;14.68;7.63;;;;;;;1.28;79.98;103078.03;5027105;28;20477;-72
2023/01/28 11:16:53;;;;;;;14.40;6.70;;;;;;;1.32;78.69;103070.00;5027089;28;20040;-72
2023/01/28 11:19:21;;;;;;;14.88;6.90;;;;;;;1.35;79.34;103067.31;5025292;28;20041;-74
2023/01/28 11:21:55;;;;;;;16.25;7.07;;;;;;;1.37;79.34;103063.75;5027374;28;20041;-73
2023/01/28 11:24:29;;;;;;;14.10;6.78;;;;;;;1.40;79.26;103074.50;5027023;28;20183;-72
2023/01/28 11:26:56;;;;;;;15.52;7.30;;;;;;;1.42;80.03;103058.38;5026623;28;20065;-72
2023/01/28 11:29:29;;;;;;;15.43;6.90;;;;;;;1.46;78.76;103053.03;5027030;28;20037;-72
2023/01/28 11:31:55;;;;;;;15.38;7.03;;;;;;;1.52;78.76;103038.72;5025587;28;20084;-72
2023/01/28 11:34:26;;;;;;;13.82;7.20;;;;;;;1.57;78.23;103046.78;5025184;28;20040;-72
2023/01/28 11:37:11;;;;;;;13.45;7.07;;;;;;;1.62;78.61;103043.19;5025013;28;20124;-73
2023/01/28 11:39:36;;;;;;;16.67;7.20;;;;;;;1.65;78.12;103035.16;5026945;28;20392;-72
2023/01/28 11:42:17;;;;;;;15.27;7.65;;;;;;;1.68;78.67;103037.84;5028229;28;20041;-72
2023/01/28 11:44:43;;;;;;;13.45;6.85;;;;;;;1.72;78.58;103038.72;5033756;28;20073;-73
2023/01/28 11:47:28;;;;;;;14.18;7.30;;;;;;;1.71;77.97;103026.19;5050296;28;20468;-72
2023/01/28 11:50:14;;;;;;;14.10;7.15;;;;;;;1.76;78.46;103019.94;5033120;28;20045;-72
2023/01/28 11:53:17;;;;;;;16.00;7.70;;;;;;;1.86;79.06;103009.19;5028799;28;20048;-73
2023/01/28 11:55:53;;;;;;;17.00;7.85;;;;;;;1.98;79.09;102983.22;5031155;28;20532;-72
2023/01/28 11:58:44;;;;;;;16.58;8.35;;;;;;;2.03;78.35;102972.47;5030231;28;20129;-72
2023/01/28 12:01:15;;;;;;;14.02;7.38;;;;;;;2.08;79.54;102957.25;5050080;28;20051;-73
2023/01/28 12:03:49;;;;;;;15.02;7.93;;;;;;;2.10;79.76;102949.19;5050400;28;20372;-71
2023/01/28 12:06:44;;;;;;;16.63;8.40;;;;;;;2.09;77.79;102942.03;5047077;28;20464;-72
2023/01/28 12:09:23;;;;;;;17.33;8.23;;;;;;;2.09;78.10;102945.59;5030546;28;20061;-72